Time;durP1;ratioP1;P1;durP2;ratioP2;P2;SDS_P1;SDS_P2;PMS_P1;PMS_P2;Temp;Humidity;BMP_temperature;BMP_pressure;BME280_temperature;BME280_humidity;BME280_pressure;Samples;Min_cycle;Max_cycle;Signal;HPM_P1;HPM_P2
2021/11/28 00:00:50;;;;;;;58.83;37.25;;;;;;;1.90;100.00;99294.72;5128241;27;20016;-69
2021/11/28 00:03:18;;;;;;;60.80;37.78;;;;;;;1.89;100.00;99300.78;5124511;27;20015;-69
2021/11/28 00:05:50;;;;;;;60.75;36.75;;;;;;;1.89;100.00;99299.06;5109400;27;20393;-69
2021/11/28 00:08:36;;;;;;;59.38;36.78;;;;;;;1.87;100.00;99298.16;5120443;27;20016;-68
2021/11/28 00:13:51;;;;;;;64.15;37.97;;;;;;;1.85;100.00;99307.69;5120772;27;20047;-69
2021/11/28 00:16:17;;;;;;;58.78;35.33;;;;;;;1.84;100.00;99307.69;5120279;27;20092;-69
2021/11/28 00:18:44;;;;;;;58.90;35.88;;;;;;;1.82;100.00;99301.53;5127466;27;20038;-69
2021/11/28 00:21:10;;;;;;;61.42;37.33;;;;;;;1.84;100.00;99307.69;5124727;27;20024;-69
2021/11/28 00:23:36;;;;;;;57.90;35.58;;;;;;;1.84;100.00;99310.28;5126261;27;20466;-69
2021/11/28 00:26:03;;;;;;;64.18;37.90;;;;;;;1.80;100.00;99316.28;5125838;27;20023;-69
2021/11/28 00:28:29;;;;;;;60.30;36.53;;;;;;;1.83;100.00;99312.00;5125249;27;20390;-69
2021/11/28 00:30:54;;;;;;;58.80;35.20;;;;;;;1.77;100.00;99311.91;5126634;27;20017;-69
2021/11/28 00:33:20;;;;;;;60.58;36.10;;;;;;;1.81;100.00;99302.41;5124058;27;20081;-69
2021/11/28 00:35:46;;;;;;;63.47;36.88;;;;;;;1.82;100.00;99311.97;5127397;27;20035;-69
2021/11/28 00:38:11;;;;;;;63.00;37.38;;;;;;;1.84;100.00;99307.69;5124445;27;20111;-69
2021/11/28 00:40:37;;;;;;;60.85;36.40;;;;;;;1.78;100.00;99304.94;5126165;27;20100;-69
2021/11/28 00:43:02;;;;;;;64.20;37.25;;;;;;;1.78;100.00;99312.78;5125570;27;20023;-70
2021/11/28 00:45:28;;;;;;;63.22;35.60;;;;;;;1.77;100.00;99313.66;5106323;27;20027;-70
2021/11/28 00:47:53;;;;;;;61.55;36.00;;;;;;;1.81;100.00;99313.72;5126467;27;20115;-70
2021/11/28 00:52:47;;;;;;;64.32;36.63;;;;;;;1.85;100.00;99322.44;5119714;27;20441;-70
2021/11/28 00:55:13;;;;;;;65.05;37.60;;;;;;;1.84;100.00;99318.09;5126534;27;20105;-70
2021/11/28 00:57:38;;;;;;;63.65;36.30;;;;;;;1.87;100.00;99331.19;5124462;27;20029;-70
2021/11/28 01:00:06;;;;;;;64.20;35.70;;;;;;;1.84;100.00;99325.91;5125543;27;20030;-71
2021/11/28 01:02:33;;;;;;;65.82;36.53;;;;;;;1.84;100.00;99320.72;5125054;27;20083;-70
2021/11/28 01:04:59;;;;;;;69.07;36.25;;;;;;;1.78;100.00;99331.91;5124186;27;20367;-70
2021/11/28 01:07:26;;;;;;;64.50;36.15;;;;;;;1.80;100.00;99322.38;5126463;27;20026;-70
2021/11/28 01:09:52;;;;;;;66.80;35.65;;;;;;;1.77;100.00;99331.88;5123302;27;20416;-70
2021/11/28 01:12:19;;;;;;;65.82;36.15;;;;;;;1.77;100.00;99337.97;5126423;27;20486;-70
2021/11/28 01:14:44;;;;;;;66.60;35.78;;;;;;;1.79;100.00;99345.81;5123217;27;20092;-70
2021/11/28 01:17:09;;;;;;;66.07;36.50;;;;;;;1.76;100.00;99349.22;5125708;27;20039;-71
2021/11/28 01:19:35;;;;;;;67.90;35.72;;;;;;;1.78;100.00;99347.53;5124206;27;20015;-71
2021/11/28 01:22:12;;;;;;;63.55;34.92;;;;;;;1.76;100.00;99356.19;5124616;27;20526;-70
2021/11/28 01:24:38;;;;;;;67.22;35.83;;;;;;;1.76;100.00;99358.78;5123880;27;20067;-70
2021/11/28 01:27:08;;;;;;;65.22;35.88;;;;;;;1.80;100.00;99358.84;5124621;27;20023;-70
2021/11/28 01:29:33;;;;;;;64.47;35.28;;;;;;;1.81;100.00;99360.63;5124328;27;20382;-70
2021/11/28 01:32:01;;;;;;;64.72;35.05;;;;;;;1.83;100.00;99371.06;5124052;27;20027;-70
2021/11/28 01:34:28;;;;;;;64.35;35.42;;;;;;;1.82;100.00;99375.41;5124992;27;20114;-70
2021/11/28 01:36:53;;;;;;;66.53;35.60;;;;;;;1.80;100.00;99373.63;5123175;27;20019;-71
2021/11/28 01:39:18;;;;;;;62.05;34.45;;;;;;;1.90;100.00;99375.53;5126277;27;20503;-70
2021/11/28 01:41:44;;;;;;;65.85;36.22;;;;;;;1.89;100.00;99373.75;5122728;27;20458;-70
2021/11/28 01:44:09;;;;;;;69.28;34.35;;;;;;;1.85;100.00;99380.66;5125216;27;20022;-71
2021/11/28 01:46:35;;;;;;;69.55;36.70;;;;;;;1.93;100.00;99386.00;5123629;27;20037;-70
2021/11/28 01:49:01;;;;;;;67.75;35.58;;;;;;;1.88;100.00;99395.50;5123689;27;20103;-70
2021/11/28 01:51:26;;;;;;;65.45;35.33;;;;;;;1.92;100.00;99390.34;5125044;27;20129;-69
2021/11/28 01:53:54;;;;;;;64.38;35.15;;;;;;;1.90;100.00;99397.25;5122560;27;20059;-69
2021/11/28 01:56:22;;;;;;;64.28;34.05;;;;;;;1.92;100.00;99398.16;5125324;27;20024;-69
2021/11/28 01:58:47;;;;;;;65.63;35.85;;;;;;;1.91;100.00;99400.75;5118458;27;20092;-69
2021/11/28 02:01:15;;;;;;;62.63;33.95;;;;;;;1.85;100.00;99395.41;5126179;27;20469;-69
2021/11/28 02:03:42;;;;;;;64.90;34.40;;;;;;;1.83;100.00;99394.53;5123133;27;20076;-69
2021/11/28 02:06:10;;;;;;;66.70;34.90;;;;;;;1.82;100.00;99395.34;5125856;27;20044;-69
2021/11/28 02:08:37;;;;;;;65.85;35.30;;;;;;;1.83;100.00;99403.19;5124173;27;20027;-69
2021/11/28 02:11:04;;;;;;;68.53;35.50;;;;;;;1.85;100.00;99403.22;5123818;27;20398;-69
2021/11/28 02:13:30;;;;;;;67.60;34.83;;;;;;;1.89;100.00;99407.63;5124259;27;20084;-69
2021/11/28 02:15:55;;;;;;;67.53;34.80;;;;;;;1.90;100.00;99398.97;5122752;27;20032;-69
2021/11/28 02:18:22;;;;;;;70.35;35.72;;;;;;;1.91;100.00;99392.94;5125294;27;20470;-69
2021/11/28 02:20:50;;;;;;;67.43;35.15;;;;;;;1.94;100.00;99399.91;5121852;27;20034;-69
2021/11/28 02:23:15;;;;;;;70.97;34.53;;;;;;;1.94;100.00;99394.69;5125269;27;20110;-69
2021/11/28 02:25:42;;;;;;;67.32;34.50;;;;;;;1.98;100.00;99399.09;5122271;27;20122;-69
2021/11/28 02:28:08;;;;;;;68.28;35.13;;;;;;;1.97;100.00;99406.06;5124271;27;20026;-69
2021/11/28 02:30:33;;;;;;;74.70;34.70;;;;;;;1.98;100.00;99405.22;5123378;27;20019;-70
2021/11/28 02:33:00;;;;;;;70.90;34.22;;;;;;;1.98;100.00;99405.22;5122985;27;20095;-71
2021/11/28 02:35:27;;;;;;;69.97;35.78;;;;;;;1.92;100.00;99405.97;5125744;27;20083;-71
2021/11/28 02:37:53;;;;;;;69.35;34.65;;;;;;;1.95;100.00;99407.72;5136520;27;20066;-71
2021/11/28 02:40:22;;;;;;;75.22;35.60;;;;;;;1.92;100.00;99411.19;5125341;28;20598;-74
2021/11/28 02:42:50;;;;;;;72.57;35.05;;;;;;;1.96;100.00;99412.09;5117956;27;20035;-70
2021/11/28 02:45:17;;;;;;;72.57;35.22;;;;;;;1.95;100.00;99414.69;5124737;27;20027;-75
2021/11/28 02:47:42;;;;;;;71.72;35.55;;;;;;;1.99;100.00;99419.09;5121942;28;20110;-70
2021/11/28 02:50:12;;;;;;;73.75;35.75;;;;;;;2.01;100.00;99425.22;5124160;28;20160;-70
2021/11/28 02:52:38;;;;;;;75.07;36.53;;;;;;;2.02;100.00;99430.44;5122716;28;20084;-70
2021/11/28 02:55:04;;;;;;;69.18;35.03;;;;;;;2.03;100.00;99432.22;5123144;28;20027;-70
2021/11/28 02:57:30;;;;;;;70.28;35.70;;;;;;;2.03;100.00;99429.59;5123823;28;20106;-70
2021/11/28 02:59:55;;;;;;;71.32;34.60;;;;;;;1.98;100.00;99418.25;5121977;28;20145;-70
2021/11/28 03:02:21;;;;;;;71.80;33.35;;;;;;;1.98;100.00;99426.06;5124982;28;20047;-70
2021/11/28 03:04:46;;;;;;;70.93;34.28;;;;;;;1.99;100.00;99424.31;5117157;28;20061;-70
2021/11/28 03:07:18;;;;;;;67.90;34.00;;;;;;;1.98;100.00;99422.56;5124392;28;20035;-70
2021/11/28 03:09:44;;;;;;;71.25;33.90;;;;;;;2.03;100.00;99421.78;5123877;27;20023;-70
2021/11/28 03:12:11;;;;;;;66.32;32.67;;;;;;;2.06;100.00;99427.03;5128164;27;20063;-69
2021/11/28 03:14:37;;;;;;;65.38;33.03;;;;;;;2.09;100.00;99426.22;5126795;27;20114;-70
2021/11/28 03:17:04;;;;;;;69.63;32.80;;;;;;;2.08;100.00;99430.56;5126962;27;20028;-71
2021/11/28 03:19:29;;;;;;;64.78;33.08;;;;;;;2.09;100.00;99439.25;5127662;27;20030;-70
2021/11/28 03:21:54;;;;;;;66.90;32.50;;;;;;;2.09;100.00;99432.31;5125861;27;20023;-70
2021/11/28 03:24:20;;;;;;;69.07;33.15;;;;;;;2.09;100.00;99434.91;5128832;27;20359;-70
2021/11/28 03:26:45;;;;;;;66.88;33.25;;;;;;;2.13;100.00;99437.59;5125582;27;20458;-70
2021/11/28 03:29:17;;;;;;;69.93;34.08;;;;;;;2.14;100.00;99436.72;5127806;27;20093;-70
2021/11/28 03:31:48;;;;;;;70.75;34.65;;;;;;;2.12;100.00;99439.31;5125580;27;20061;-70
2021/11/28 03:34:16;;;;;;;75.15;35.55;;;;;;;2.09;100.00;99437.50;5128060;27;20027;-70
2021/11/28 03:36:48;;;;;;;72.22;34.65;;;;;;;2.12;100.00;99435.81;5126069;27;20038;-70
2021/11/28 03:39:14;;;;;;;71.15;34.88;;;;;;;2.08;100.00;99434.88;5127871;27;20023;-71
2021/11/28 03:41:43;;;;;;;70.97;35.20;;;;;;;2.09;100.00;99447.94;5125823;27;20416;-70
2021/11/28 03:44:09;;;;;;;74.57;35.50;;;;;;;2.13;100.00;99440.19;5127395;27;20097;-70
2021/11/28 03:46:34;;;;;;;72.13;35.72;;;;;;;2.11;100.00;99452.31;5126325;27;20085;-70
2021/11/28 03:49:00;;;;;;;71.10;34.92;;;;;;;2.13;100.00;99448.03;5125774;27;20536;-70
2021/11/28 03:51:26;;;;;;;76.15;36.63;;;;;;;2.12;100.00;99446.25;5127768;27;20020;-69
2021/11/28 03:53:52;;;;;;;70.80;34.25;;;;;;;2.11;100.00;99445.34;5124849;27;20053;-69
2021/11/28 03:56:17;;;;;;;72.95;36.08;;;;;;;2.11;100.00;99452.31;5128159;27;20023;-69
2021/11/28 03:58:43;;;;;;;73.70;35.92;;;;;;;2.05;100.00;99453.97;5125328;27;20023;-69
2021/11/28 04:01:11;;;;;;;69.88;36.38;;;;;;;2.05;100.00;99451.38;5126851;27;20462;-69
2021/11/28 04:03:37;;;;;;;74.32;35.63;;;;;;;2.04;100.00;99449.63;5125665;27;20057;-69
2021/11/28 04:06:02;;;;;;;74.45;36.58;;;;;;;2.08;100.00;99450.53;5125967;27;20057;-69
2021/11/28 04:08:28;;;;;;;80.00;39.53;;;;;;;2.09;100.00;99455.75;5127017;27;20066;-69
2021/11/28 04:10:53;;;;;;;72.28;36.92;;;;;;;2.04;100.00;99449.63;5124536;27;20110;-68
2021/11/28 04:13:19;;;;;;;73.95;36.95;;;;;;;2.00;100.00;99449.53;5127953;27;20069;-69
2021/11/28 04:15:44;;;;;;;74.68;37.08;;;;;;;1.98;100.00;99459.03;5124546;27;20024;-69
2021/11/28 04:18:10;;;;;;;79.20;36.17;;;;;;;1.98;100.00;99465.16;5128052;27;20065;-69
2021/11/28 04:20:36;;;;;;;80.30;38.25;;;;;;;1.92;100.00;99457.22;5126787;27;20076;-69
2021/11/28 04:23:02;;;;;;;77.38;36.95;;;;;;;1.95;100.00;99459.00;5126637;27;20034;-69
2021/11/28 04:25:27;;;;;;;77.55;37.22;;;;;;;1.95;100.00;99459.88;5128100;27;20030;-69
2021/11/28 04:27:53;;;;;;;74.32;37.67;;;;;;;1.98;100.00;99459.03;5125113;27;20024;-69
2021/11/28 04:30:19;;;;;;;77.28;37.35;;;;;;;1.90;100.00;99466.75;5128835;27;20039;-69
2021/11/28 04:32:44;;;;;;;79.60;37.83;;;;;;;1.89;100.00;99465.88;5143670;27;20031;-69
2021/11/28 04:35:10;;;;;;;80.20;38.33;;;;;;;1.91;100.00;99471.13;5148239;27;20038;-71
2021/11/28 04:37:36;;;;;;;81.10;38.00;;;;;;;1.89;100.00;99476.31;5147125;27;20023;-70
2021/11/28 04:40:04;;;;;;;79.72;38.50;;;;;;;1.94;100.00;99478.97;5146954;27;20034;-69
2021/11/28 04:42:29;;;;;;;83.00;38.78;;;;;;;1.90;100.00;99466.75;5148165;27;20058;-72
2021/11/28 04:44:55;;;;;;;79.50;38.00;;;;;;;1.87;100.00;99471.91;5145765;27;20032;-70
2021/11/28 04:47:20;;;;;;;82.05;38.45;;;;;;;1.83;100.00;99476.16;5131753;27;20019;-73
2021/11/28 04:49:47;;;;;;;78.32;37.15;;;;;;;1.89;100.00;99480.63;5123540;27;20035;-73
2021/11/28 04:52:12;;;;;;;82.22;38.63;;;;;;;1.86;100.00;99465.78;5126089;27;20038;-72
2021/11/28 04:54:38;;;;;;;78.43;38.40;;;;;;;1.85;100.00;99473.59;5125021;27;20027;-71
2021/11/28 04:57:04;;;;;;;81.05;38.50;;;;;;;1.85;100.00;99474.50;5124948;27;20035;-71
2021/11/28 04:59:30;;;;;;;81.18;38.78;;;;;;;1.83;100.00;99486.59;5126062;27;20031;-73
2021/11/28 05:01:55;;;;;;;84.45;37.97;;;;;;;1.85;100.00;99490.13;5124038;27;20023;-71
2021/11/28 05:04:21;;;;;;;86.82;38.55;;;;;;;1.84;100.00;99490.97;5126642;27;20027;-72
2021/11/28 05:06:46;;;;;;;83.43;38.88;;;;;;;1.89;100.00;99496.25;5123514;27;20019;-72
2021/11/28 05:09:12;;;;;;;88.45;40.03;;;;;;;1.89;100.00;99496.25;5125927;27;20386;-71
2021/11/28 05:11:37;;;;;;;90.40;40.75;;;;;;;1.93;100.00;99500.69;5124480;27;20382;-69
2021/11/28 05:14:02;;;;;;;92.80;40.75;;;;;;;1.88;100.00;99495.38;5124989;27;20035;-70
2021/11/28 05:16:28;;;;;;;94.72;40.60;;;;;;;1.92;100.00;99501.53;5125887;27;20048;-69
2021/11/28 05:18:53;;;;;;;86.57;40.95;;;;;;;1.88;100.00;99498.00;5123374;27;20057;-69
2021/11/28 05:21:19;;;;;;;91.68;40.50;;;;;;;1.94;100.00;99498.94;5126600;27;20030;-70
2021/11/28 05:23:44;;;;;;;89.63;40.00;;;;;;;1.90;100.00;99495.41;5123456;27;20382;-70
2021/11/28 05:26:10;;;;;;;91.05;40.40;;;;;;;1.90;100.00;99492.81;5125196;27;20382;-69
2021/11/28 05:28:35;;;;;;;86.68;39.42;;;;;;;1.90;100.00;99496.28;5124950;27;20024;-70
2021/11/28 05:31:01;;;;;;;84.88;38.35;;;;;;;1.91;100.00;99499.78;5123572;27;20020;-69
2021/11/28 05:33:26;;;;;;;85.95;38.08;;;;;;;1.91;100.00;99505.00;5125521;27;20435;-70
2021/11/28 05:35:51;;;;;;;88.25;39.13;;;;;;;1.88;100.00;99513.63;5123100;27;20023;-70
2021/11/28 05:38:17;;;;;;;83.40;38.35;;;;;;;1.86;100.00;99504.03;5125951;27;20023;-70
2021/11/28 05:40:42;;;;;;;86.63;39.47;;;;;;;1.88;100.00;99517.97;5123745;27;20023;-70
2021/11/28 05:43:08;;;;;;;87.22;38.63;;;;;;;1.91;100.00;99520.63;5124558;27;20102;-70
2021/11/28 05:45:33;;;;;;;84.82;37.72;;;;;;;1.91;100.00;99528.47;5124353;27;20027;-71
2021/11/28 05:47:58;;;;;;;84.40;39.22;;;;;;;1.93;100.00;99526.75;5123414;27;20047;-70
2021/11/28 05:50:28;;;;;;;86.07;38.03;;;;;;;1.97;100.00;99530.31;5125709;27;20497;-70
2021/11/28 05:52:54;;;;;;;84.32;38.05;;;;;;;1.95;100.00;99525.03;5122132;27;20378;-71
2021/11/28 05:55:20;;;;;;;85.88;38.00;;;;;;;1.96;100.00;99529.41;5126106;27;20026;-70
2021/11/28 05:57:46;;;;;;;82.25;37.70;;;;;;;1.95;100.00;99531.97;5122836;27;20027;-70
2021/11/28 06:00:16;;;;;;;84.75;38.10;;;;;;;1.93;100.00;99539.78;5124840;27;20070;-70
2021/11/28 06:02:41;;;;;;;83.10;36.58;;;;;;;1.94;100.00;99544.16;5135359;27;20023;-69
2021/11/28 06:05:08;;;;;;;93.25;38.70;;;;;;;1.92;100.00;99545.84;5127734;27;20122;-69
2021/11/28 06:07:33;;;;;;;85.63;37.42;;;;;;;1.89;100.00;99551.00;5124341;27;20494;-68
2021/11/28 06:09:58;;;;;;;88.28;38.53;;;;;;;1.91;100.00;99549.31;5123163;27;20055;-69
2021/11/28 06:12:24;;;;;;;85.45;37.60;;;;;;;1.88;100.00;99552.72;5125212;27;20036;-69
2021/11/28 06:14:49;;;;;;;86.47;38.13;;;;;;;1.88;100.00;99554.47;5121931;27;20028;-69
2021/11/28 06:17:15;;;;;;;83.53;38.20;;;;;;;1.84;100.00;99556.13;5125108;27;20027;-69
2021/11/28 06:19:40;;;;;;;84.20;38.58;;;;;;;1.79;100.00;99556.88;5122979;27;20066;-69
2021/11/28 06:22:08;;;;;;;81.85;37.63;;;;;;;1.82;100.00;99559.53;5123383;27;20027;-69
2021/11/28 06:24:35;;;;;;;79.22;36.72;;;;;;;1.78;100.00;99557.72;5124336;27;20042;-69
2021/11/28 06:27:01;;;;;;;86.25;38.08;;;;;;;1.77;100.00;99558.59;5122708;27;20024;-69
2021/11/28 06:29:26;;;;;;;87.35;37.63;;;;;;;1.76;100.00;99556.81;5124875;27;20102;-69
2021/11/28 06:31:51;;;;;;;84.35;37.90;;;;;;;1.78;100.00;99561.22;5122013;27;20051;-69
2021/11/28 06:34:17;;;;;;;88.65;37.72;;;;;;;1.76;100.00;99562.03;5124924;27;20038;-69
2021/11/28 06:36:42;;;;;;;86.28;38.05;;;;;;;1.77;100.00;99559.47;5122542;27;20027;-69
2021/11/28 06:39:07;;;;;;;84.32;39.05;;;;;;;1.73;100.00;99555.94;5123757;27;20478;-69
2021/11/28 06:41:33;;;;;;;88.32;38.17;;;;;;;1.70;100.00;99563.69;5123859;27;20046;-69
2021/11/28 06:43:58;;;;;;;84.55;37.35;;;;;;;1.69;100.00;99561.91;5122267;27;20378;-69
2021/11/28 06:46:24;;;;;;;87.68;38.20;;;;;;;1.67;100.00;99566.22;5125120;27;20035;-69
2021/11/28 06:48:49;;;;;;;90.82;38.70;;;;;;;1.67;100.00;99571.41;5121810;28;20028;-69
2021/11/28 06:51:15;;;;;;;87.60;37.35;;;;;;;1.70;100.00;99575.81;5106179;28;20486;-69
2021/11/28 06:53:41;;;;;;;91.68;38.25;;;;;;;1.68;100.00;99578.41;5122827;28;20025;-69
2021/11/28 06:56:06;;;;;;;89.10;36.60;;;;;;;1.70;100.00;99578.41;5123319;28;20226;-69
2021/11/28 06:58:33;;;;;;;88.05;37.03;;;;;;;1.70;100.00;99583.63;5124500;28;20027;-69
2021/11/28 07:00:58;;;;;;;88.40;36.03;;;;;;;1.67;100.00;99584.44;5122216;28;20023;-69
2021/11/28 07:03:23;;;;;;;88.70;38.33;;;;;;;1.64;100.00;99583.53;5125372;28;20138;-69
2021/11/28 07:05:49;;;;;;;93.88;39.50;;;;;;;1.64;100.00;99587.00;5117245;28;20059;-69
2021/11/28 07:08:14;;;;;;;87.82;37.60;;;;;;;1.68;100.00;99591.41;5124094;28;20023;-69
2021/11/28 07:10:39;;;;;;;83.95;37.35;;;;;;;1.69;100.00;99606.22;5122530;28;20488;-74
2021/11/28 07:13:09;;;;;;;85.25;38.35;;;;;;;1.73;100.00;99608.03;5122847;28;20048;-73
2021/11/28 07:15:35;;;;;;;82.80;36.90;;;;;;;1.65;100.00;99612.22;5123266;28;20026;-71
2021/11/28 07:18:00;;;;;;;85.00;37.65;;;;;;;1.67;100.00;99610.50;5122066;28;20085;-69
2021/11/28 07:20:26;;;;;;;91.05;37.72;;;;;;;1.67;100.00;99612.25;5125004;28;20043;-69
2021/11/28 07:22:51;;;;;;;86.55;38.13;;;;;;;1.67;100.00;99615.72;5121203;28;20524;-69
2021/11/28 07:25:18;;;;;;;74.55;34.80;;;;;;;1.71;100.00;99621.88;5124418;28;20074;-69
2021/11/28 07:27:43;;;;;;;79.18;35.65;;;;;;;1.67;100.00;99614.84;5121980;28;20048;-69
2021/11/28 07:30:09;;;;;;;81.38;36.42;;;;;;;1.62;100.00;99619.97;5123465;28;20023;-69
2021/11/28 07:32:35;;;;;;;83.05;36.38;;;;;;;1.56;100.00;99628.53;5123099;28;20031;-69
2021/11/28 07:35:00;;;;;;;77.90;35.92;;;;;;;1.59;100.00;99625.13;5114271;28;20019;-69
2021/11/28 07:37:27;;;;;;;84.38;36.20;;;;;;;1.55;100.00;99625.88;5110645;28;20034;-68
2021/11/28 07:39:52;;;;;;;88.50;37.33;;;;;;;1.61;100.00;99638.16;5110535;28;20050;-70
2021/11/28 07:42:17;;;;;;;90.05;38.85;;;;;;;1.60;100.00;99633.78;5115258;28;20011;-70
2021/11/28 07:44:43;;;;;;;90.72;39.20;;;;;;;1.56;100.00;99638.06;5113174;28;20023;-69
2021/11/28 07:47:08;;;;;;;97.15;38.97;;;;;;;1.55;100.00;99642.38;5112700;28;20019;-71
2021/11/28 07:49:34;;;;;;;93.65;39.28;;;;;;;1.61;100.00;99641.63;5108677;28;20123;-73
2021/11/28 07:51:59;;;;;;;91.78;38.22;;;;;;;1.63;100.00;99650.38;5114249;28;20031;-70
2021/11/28 07:54:24;;;;;;;91.97;38.53;;;;;;;1.66;100.00;99666.09;5113274;28;20054;-71
2021/11/28 07:56:50;;;;;;;93.78;38.58;;;;;;;1.68;100.00;99659.16;5112537;28;20038;-68
2021/11/28 07:59:15;;;;;;;94.55;38.50;;;;;;;1.63;100.00;99665.13;5117155;27;20047;-72
2021/11/28 08:01:40;;;;;;;95.95;40.50;;;;;;;1.64;100.00;99662.56;5113725;27;20462;-71
2021/11/28 08:04:06;;;;;;;99.07;40.13;;;;;;;1.61;100.00;99669.44;5117094;27;20022;-73
2021/11/28 08:06:31;;;;;;;96.88;39.95;;;;;;;1.57;100.00;99673.69;5117805;27;20111;-72
2021/11/28 08:08:57;;;;;;;94.40;39.38;;;;;;;1.63;100.00;99671.22;5112955;27;20102;-70
2021/11/28 08:11:22;;;;;;;103.57;40.85;;;;;;;1.61;100.00;99674.66;5111628;28;20027;-72
2021/11/28 08:13:48;;;;;;;102.97;41.90;;;;;;;1.61;100.00;99682.47;5112880;27;20059;-69
2021/11/28 08:16:14;;;;;;;95.85;40.05;;;;;;;1.57;100.00;99684.09;5116890;27;20070;-73
2021/11/28 08:18:39;;;;;;;104.18;41.45;;;;;;;1.61;100.00;99695.50;5111913;28;20023;-71
2021/11/28 08:21:05;;;;;;;103.72;42.28;;;;;;;1.55;100.00;99681.47;5116814;27;20049;-71
2021/11/28 08:23:30;;;;;;;100.03;42.33;;;;;;;1.53;100.00;99687.47;5115905;27;20458;-70
2021/11/28 08:25:56;;;;;;;101.70;39.90;;;;;;;1.44;100.00;99692.50;5116800;27;20162;-71
2021/11/28 08:28:21;;;;;;;102.82;40.60;;;;;;;1.45;100.00;99691.66;5117540;27;20356;-70
2021/11/28 08:30:47;;;;;;;104.72;39.92;;;;;;;1.41;100.00;99690.69;5118935;27;20424;-70
2021/11/28 08:33:12;;;;;;;108.55;40.42;;;;;;;1.43;100.00;99698.53;5118038;27;20023;-70
2021/11/28 08:35:38;;;;;;;112.90;42.28;;;;;;;1.54;100.00;99691.84;5117466;27;20124;-71
2021/11/28 08:38:05;;;;;;;117.03;43.92;;;;;;;1.55;100.00;99704.03;5114948;27;20020;-70
2021/11/28 08:40:30;;;;;;;115.18;43.92;;;;;;;1.62;100.00;99705.06;5117271;27;20051;-70
2021/11/28 08:42:55;;;;;;;111.22;44.03;;;;;;;1.67;100.00;99701.69;5116767;27;20024;-70
2021/11/28 08:45:21;;;;;;;113.38;44.03;;;;;;;1.74;100.00;99711.41;5118940;27;20157;-70
2021/11/28 08:47:48;;;;;;;108.55;44.13;;;;;;;1.83;100.00;99709.84;5120717;27;20069;-70
2021/11/28 08:50:15;;;;;;;109.85;44.15;;;;;;;1.91;100.00;99708.31;5126418;27;20114;-70
2021/11/28 08:52:43;;;;;;;104.05;44.17;;;;;;;1.97;100.00;99711.03;5123271;27;20024;-69
2021/11/28 08:55:08;;;;;;;103.75;43.40;;;;;;;1.95;100.00;99706.63;5113012;27;20442;-68
2021/11/28 08:57:34;;;;;;;105.15;44.78;;;;;;;1.91;100.00;99708.31;5110801;27;20039;-69
2021/11/28 08:59:59;;;;;;;102.43;44.88;;;;;;;1.93;100.00;99711.81;5114103;27;20026;-68
2021/11/28 09:02:25;;;;;;;98.80;43.25;;;;;;;1.96;100.00;99717.09;5118041;27;20039;-69
2021/11/28 09:04:50;;;;;;;96.65;44.10;;;;;;;1.96;100.00;99717.09;5111648;27;20594;-69
2021/11/28 09:07:17;;;;;;;103.07;45.05;;;;;;;2.02;100.00;99719.81;5111239;28;20031;-70
2021/11/28 09:09:42;;;;;;;106.40;46.55;;;;;;;2.13;100.00;99727.00;5112334;27;20391;-69
2021/11/28 09:12:09;;;;;;;105.82;46.33;;;;;;;2.27;100.00;99722.94;5112799;27;20040;-70
2021/11/28 09:14:34;;;;;;;94.45;44.78;;;;;;;2.26;100.00;99727.28;5117582;27;20108;-69
2021/11/28 09:17:00;;;;;;;91.53;46.13;;;;;;;2.19;100.00;99724.53;5118317;27;20206;-71
2021/11/28 09:19:44;;;;;;;96.90;46.17;;;;;;;2.25;100.00;99729.84;5115188;27;20561;-70
2021/11/28 09:22:11;;;;;;;95.50;45.58;;;;;;;2.02;100.00;99732.84;5114638;27;20059;-66
2021/11/28 09:24:37;;;;;;;97.00;46.90;;;;;;;2.00;100.00;99726.75;5117815;27;20023;-66
2021/11/28 09:27:10;;;;;;;100.85;47.90;;;;;;;2.03;100.00;99737.22;5114498;27;20019;-66
2021/11/28 09:29:37;;;;;;;100.15;46.40;;;;;;;1.99;100.00;99743.22;5122719;27;20056;-66
2021/11/28 09:32:03;;;;;;;102.97;47.55;;;;;;;2.14;100.00;99739.19;5121232;27;20032;-66
2021/11/28 09:34:29;;;;;;;100.85;47.35;;;;;;;2.22;100.00;99742.84;5118360;27;20024;-65
2021/11/28 09:36:54;;;;;;;107.15;49.45;;;;;;;2.39;100.00;99749.28;5120252;27;20064;-67
2021/11/28 09:39:20;;;;;;;99.07;47.78;;;;;;;2.41;100.00;99750.16;5117234;27;20521;-66
2021/11/28 09:41:46;;;;;;;99.32;47.88;;;;;;;2.53;100.00;99751.28;5117771;27;20023;-66
2021/11/28 09:44:16;;;;;;;96.47;47.53;;;;;;;2.74;100.00;99754.28;5119816;27;20102;-67
2021/11/28 09:46:41;;;;;;;88.43;45.03;;;;;;;2.92;100.00;99747.66;5112821;27;20386;-71
2021/11/28 09:49:07;;;;;;;88.90;45.83;;;;;;;2.96;100.00;99755.56;5120104;27;20102;-73
2021/11/28 09:51:33;;;;;;;80.85;44.22;;;;;;;3.10;100.00;99749.69;5099565;27;20456;-73
2021/11/28 09:54:04;;;;;;;82.82;43.03;;;;;;;3.37;100.00;99751.03;5120022;27;20524;-73
2021/11/28 09:56:34;;;;;;;78.20;42.85;;;;;;;3.59;100.00;99747.00;5116886;27;20028;-72
2021/11/28 09:59:03;;;;;;;72.90;41.30;;;;;;;3.71;100.00;99748.91;5117488;27;20110;-73
2021/11/28 10:01:29;;;;;;;72.88;40.92;;;;;;;3.88;100.00;99738.72;5119350;27;20064;-73
2021/11/28 10:03:55;;;;;;;71.43;40.85;;;;;;;4.37;100.00;99739.34;5123765;27;20110;-73
2021/11/28 10:06:20;;;;;;;65.75;39.60;;;;;;;4.51;100.00;99748.25;5123124;27;20031;-72
2021/11/28 10:08:47;;;;;;;61.40;38.40;;;;;;;4.29;100.00;99741.84;5124406;27;20043;-73
2021/11/28 10:11:18;;;;;;;62.88;37.40;;;;;;;4.26;100.00;99743.56;5121923;27;20027;-73
2021/11/28 10:13:45;;;;;;;56.10;34.50;;;;;;;4.14;100.00;99736.44;5125125;27;20512;-73
2021/11/28 10:16:10;;;;;;;58.55;36.30;;;;;;;4.05;100.00;99738.91;5122197;27;20120;-73
2021/11/28 10:18:36;;;;;;;57.28;35.28;;;;;;;3.96;100.00;99743.19;5124830;27;20026;-72
2021/11/28 10:21:02;;;;;;;55.03;33.88;;;;;;;3.83;100.00;99738.66;5122699;27;20114;-71
2021/11/28 10:23:28;;;;;;;56.97;34.08;;;;;;;3.82;100.00;99740.38;5123984;27;20024;-72
2021/11/28 10:26:15;;;;;;;55.30;34.38;;;;;;;3.81;100.00;99742.97;5123451;27;20526;-73
2021/11/28 10:29:03;;;;;;;54.92;33.15;;;;;;;3.86;100.00;99746.53;5099476;28;20130;-72
2021/11/28 10:31:29;;;;;;;55.67;34.20;;;;;;;3.87;100.00;99740.44;5104072;27;20031;-72
2021/11/28 10:34:16;;;;;;;53.80;33.10;;;;;;;4.06;100.00;99740.69;5123484;27;20023;-73
2021/11/28 10:36:41;;;;;;;54.50;34.05;;;;;;;4.23;100.00;99740.91;5099947;28;20027;-73
2021/11/28 10:39:22;;;;;;;52.13;32.35;;;;;;;4.28;100.00;99737.50;5117484;27;20024;-76
2021/11/28 10:41:52;;;;;;;50.40;31.42;;;;;;;4.26;100.00;99739.19;5101493;28;20576;-74
2021/11/28 10:44:21;;;;;;;53.88;32.55;;;;;;;4.37;100.00;99734.13;5105503;28;20425;-76
2021/11/28 10:46:47;;;;;;;50.88;32.47;;;;;;;4.43;100.00;99736.78;5122151;27;20055;-73
2021/11/28 10:49:16;;;;;;;50.00;29.88;;;;;;;4.69;100.00;99749.31;5124896;27;20106;-74
2021/11/28 10:51:44;;;;;;;50.17;32.05;;;;;;;4.85;100.00;99743.34;5121476;28;20459;-69
2021/11/28 10:54:23;;;;;;;50.33;32.25;;;;;;;5.03;100.00;99739.16;5117789;28;20062;-73
2021/11/28 10:56:59;;;;;;;48.55;29.95;;;;;;;5.12;100.00;99739.22;5120154;28;20024;-70
2021/11/28 10:59:24;;;;;;;49.03;30.23;;;;;;;5.47;100.00;99740.41;5123187;28;20079;-72
2021/11/28 11:01:50;;;;;;;47.25;28.33;;;;;;;6.28;100.00;99742.66;5122561;28;20419;-70
2021/11/28 11:04:20;;;;;;;44.78;28.27;;;;;;;7.43;97.94;99741.13;5124662;28;20423;-70
2021/11/28 11:07:05;;;;;;;44.55;28.52;;;;;;;8.15;94.72;99737.47;5121942;28;20023;-72
2021/11/28 11:09:42;;;;;;;41.25;25.95;;;;;;;8.41;85.48;99736.50;5122218;28;20086;-72
2021/11/28 11:12:23;;;;;;;37.83;23.48;;;;;;;8.46;85.03;99729.47;5117254;28;20048;-69
2021/11/28 11:14:50;;;;;;;38.33;23.75;;;;;;;8.08;82.43;99733.13;5119684;28;20031;-70
2021/11/28 11:17:16;;;;;;;37.78;22.63;;;;;;;7.56;78.94;99729.72;5124316;28;20019;-69
2021/11/28 11:19:46;;;;;;;38.63;23.13;;;;;;;6.90;82.73;99735.84;5103217;28;20027;-69